Time;durP1;ratioP1;P1;durP2;ratioP2;P2;SDS_P1;SDS_P2;PMS_P1;PMS_P2;Temp;Humidity;BMP_temperature;BMP_pressure;BME280_temperature;BME280_humidity;BME280_pressure;Samples;Min_cycle;Max_cycle;Signal;HPM_P1;HPM_P2
2023/08/13 04:22:32;;;;;;;9.02;5.43;;;;;;;18.44;100.00;100446.53;5089334;28;20324;-68
2023/08/13 04:24:58;;;;;;;9.50;5.75;;;;;;;18.49;100.00;100439.66;5105227;28;20094;-66
2023/08/13 04:27:24;;;;;;;7.43;5.43;;;;;;;18.52;100.00;100450.00;5088080;28;20044;-67
2023/08/13 04:29:50;;;;;;;8.20;5.13;;;;;;;18.57;100.00;100459.09;5087744;28;20032;-67
2023/08/13 04:32:16;;;;;;;8.02;5.20;;;;;;;18.57;100.00;100452.88;5088006;28;20036;-67
2023/08/13 04:34:42;;;;;;;7.80;5.05;;;;;;;18.57;100.00;100448.31;5087991;28;20032;-67
2023/08/13 04:37:07;;;;;;;8.55;5.32;;;;;;;18.62;100.00;100447.66;5087963;28;20055;-67
2023/08/13 04:39:32;;;;;;;10.25;5.40;;;;;;;18.60;100.00;100453.28;5087656;28;20055;-66
2023/08/13 04:41:59;;;;;;;6.57;5.13;;;;;;;18.58;100.00;100447.28;5087700;28;20039;-67
2023/08/13 04:44:26;;;;;;;6.32;4.68;;;;;;;18.58;100.00;100449.97;5078905;28;20039;-67
2023/08/13 04:46:53;;;;;;;12.52;6.18;;;;;;;18.57;100.00;100447.47;5086192;28;20036;-67
2023/08/13 04:49:18;;;;;;;7.55;5.07;;;;;;;18.58;100.00;100441.88;5088760;28;20384;-67
2023/08/13 04:51:44;;;;;;;12.80;5.82;;;;;;;18.59;100.00;100440.00;5087673;28;20507;-67
2023/08/13 04:54:09;;;;;;;7.15;5.57;;;;;;;18.63;100.00;100444.72;5087541;28;20483;-68
2023/08/13 04:56:35;;;;;;;10.02;5.97;;;;;;;18.66;100.00;100444.31;5081530;28;20054;-67
2023/08/13 04:59:01;;;;;;;12.75;5.90;;;;;;;18.66;100.00;100433.53;5078208;28;20082;-67
2023/08/13 05:01:27;;;;;;;8.35;5.32;;;;;;;18.68;100.00;100438.69;5078495;28;20033;-67
2023/08/13 05:03:57;;;;;;;9.93;6.05;;;;;;;18.71;100.00;100440.94;5075545;28;20039;-67
2023/08/13 05:06:23;;;;;;;8.55;5.63;;;;;;;18.75;100.00;100438.66;5087104;28;20148;-67
2023/08/13 05:08:50;;;;;;;9.25;5.65;;;;;;;18.79;100.00;100450.66;5087066;28;20085;-66
2023/08/13 05:11:16;;;;;;;8.70;6.28;;;;;;;18.84;100.00;100454.31;5087150;28;20112;-67
2023/08/13 05:13:42;;;;;;;9.18;5.70;;;;;;;18.86;100.00;100457.63;5073723;28;20107;-67
2023/08/13 05:16:08;;;;;;;10.60;5.50;;;;;;;18.91;100.00;100452.41;5086984;28;20029;-67
2023/08/13 05:18:35;;;;;;;9.60;6.10;;;;;;;18.96;100.00;100455.22;5086846;28;20043;-66
2023/08/13 05:21:01;;;;;;;8.23;5.75;;;;;;;18.98;100.00;100455.84;5086865;28;20151;-67
2023/08/13 05:23:27;;;;;;;10.15;5.97;;;;;;;19.02;100.00;100448.13;5086978;28;20067;-67
2023/08/13 05:25:53;;;;;;;10.13;5.95;;;;;;;19.06;100.00;100454.72;5086893;28;20119;-67
2023/08/13 05:28:19;;;;;;;15.30;7.43;;;;;;;19.10;100.00;100457.78;5086605;28;20461;-66
2023/08/13 05:30:44;;;;;;;12.90;7.38;;;;;;;19.10;100.00;100452.41;5086839;28;20132;-66
2023/08/13 05:33:10;;;;;;;11.00;6.47;;;;;;;19.14;100.00;100454.44;5077399;28;20063;-66
2023/08/13 05:35:36;;;;;;;13.30;7.90;;;;;;;19.16;100.00;100452.31;5073271;28;20102;-67
2023/08/13 05:38:01;;;;;;;12.93;7.55;;;;;;;19.18;100.00;100452.13;5073296;28;20132;-67
2023/08/13 05:40:26;;;;;;;15.43;8.40;;;;;;;19.22;100.00;100453.31;5073008;28;20045;-67
2023/08/13 05:42:52;;;;;;;27.95;15.85;;;;;;;19.24;100.00;100459.31;5072918;28;20036;-67
2023/08/13 05:45:18;;;;;;;12.98;7.80;;;;;;;19.28;100.00;100462.38;5073022;28;20044;-67
2023/08/13 05:47:43;;;;;;;22.52;12.63;;;;;;;19.28;100.00;100470.47;5073087;28;20033;-67
2023/08/13 05:50:10;;;;;;;19.67;8.82;;;;;;;19.34;100.00;100472.28;5072706;28;20105;-67
2023/08/13 05:52:36;;;;;;;18.05;10.63;;;;;;;19.36;100.00;100472.88;5072976;28;20067;-68
2023/08/13 05:55:01;;;;;;;19.13;9.52;;;;;;;19.40;100.00;100466.81;5074206;28;20044;-61
2023/08/13 05:57:26;;;;;;;16.20;8.13;;;;;;;19.45;100.00;100466.16;5073987;28;20044;-66
2023/08/13 05:59:52;;;;;;;11.30;7.13;;;;;;;19.46;100.00;100452.41;5073823;28;20044;-66
2023/08/13 06:02:18;;;;;;;15.77;8.00;;;;;;;19.58;100.00;100457.91;5074054;28;20090;-66
2023/08/13 06:04:43;;;;;;;13.57;7.85;;;;;;;19.62;100.00;100456.38;5074091;28;20036;-66
2023/08/13 06:07:09;;;;;;;13.85;7.43;;;;;;;19.67;100.00;100464.63;5073998;28;20037;-66
2023/08/13 06:09:34;;;;;;;12.05;6.65;;;;;;;19.75;100.00;100469.72;5072405;28;20048;-64
2023/08/13 06:12:00;;;;;;;10.65;6.85;;;;;;;19.83;100.00;100473.19;5073800;28;20036;-64
2023/08/13 06:14:26;;;;;;;13.52;6.85;;;;;;;19.87;100.00;100479.75;5073916;28;20091;-64
2023/08/13 06:16:51;;;;;;;12.50;6.88;;;;;;;19.88;100.00;100482.22;5069183;28;20044;-64
2023/08/13 06:19:16;;;;;;;14.05;7.22;;;;;;;19.93;100.00;100471.56;5073267;28;20037;-65
2023/08/13 06:21:42;;;;;;;15.20;6.40;;;;;;;20.00;100.00;100476.88;5073580;28;20041;-64
2023/08/13 06:24:07;;;;;;;12.73;6.60;;;;;;;20.04;100.00;100475.38;5073477;28;20043;-65
2023/08/13 06:26:33;;;;;;;11.40;6.00;;;;;;;20.11;100.00;100478.81;5073209;28;20033;-64
2023/08/13 06:28:58;;;;;;;13.82;7.05;;;;;;;20.18;100.00;100476.84;5073170;28;20491;-64
2023/08/13 06:31:23;;;;;;;10.73;6.18;;;;;;;20.27;100.00;100478.13;5073301;28;20506;-65
2023/08/13 06:33:49;;;;;;;11.57;6.28;;;;;;;20.32;100.00;100483.69;5073339;28;20035;-65
2023/08/13 06:36:14;;;;;;;13.50;6.28;;;;;;;20.40;100.00;100479.00;5073189;28;20123;-64
2023/08/13 06:38:40;;;;;;;8.27;5.72;;;;;;;20.43;100.00;100475.84;5064748;28;20033;-65
2023/08/13 06:41:08;;;;;;;25.02;11.73;;;;;;;20.49;100.00;100477.66;5073146;28;20029;-65
2023/08/13 06:43:34;;;;;;;19.83;10.52;;;;;;;20.55;100.00;100474.00;5072650;28;20063;-64
2023/08/13 06:46:00;;;;;;;18.02;9.15;;;;;;;20.62;100.00;100473.91;5072522;28;20483;-65
2023/08/13 06:48:32;;;;;;;28.30;12.30;;;;;;;20.70;100.00;100474.38;5072822;28;20127;-65
2023/08/13 06:50:57;;;;;;;13.65;7.82;;;;;;;20.74;100.00;100472.84;5072915;28;20036;-65
2023/08/13 06:53:24;;;;;;;15.55;6.97;;;;;;;20.77;100.00;100480.50;5072722;28;20032;-65
2023/08/13 06:55:49;;;;;;;15.68;8.43;;;;;;;20.82;100.00;100477.09;5072756;28;20097;-65
2023/08/13 06:58:15;;;;;;;14.35;7.80;;;;;;;20.85;100.00;100479.31;5072543;28;20036;-65
2023/08/13 07:00:41;;;;;;;10.40;6.35;;;;;;;20.93;100.00;100478.13;5073991;28;20028;-65
2023/08/13 07:03:07;;;;;;;10.98;6.25;;;;;;;20.96;100.00;100481.22;5061884;28;20033;-65
2023/08/13 07:05:35;;;;;;;11.60;7.23;;;;;;;21.05;100.00;100473.53;5059844;28;20032;-65
2023/08/13 07:08:00;;;;;;;;;;;;;;;21.11;100.00;100464.47;5059187;28;20045;-64
2023/08/13 07:10:26;;;;;;;10.70;6.10;;;;;;;21.21;100.00;100461.19;5061123;28;19934;-65
2023/08/13 07:12:51;;;;;;;10.35;5.65;;;;;;;21.22;100.00;100471.78;5061796;28;20124;-65
2023/08/13 07:15:16;;;;;;;12.02;6.05;;;;;;;21.32;100.00;100472.03;5072243;28;20032;-65
2023/08/13 07:17:42;;;;;;;9.35;4.93;;;;;;;21.44;100.00;100471.16;5072208;28;20033;-65
2023/08/13 07:20:09;;;;;;;14.13;5.63;;;;;;;21.51;100.00;100472.66;5072057;28;20396;-66
2023/08/13 07:22:37;;;;;;;8.50;5.43;;;;;;;21.55;100.00;100468.44;5072315;28;20652;-65
2023/08/13 07:25:03;;;;;;;10.30;4.78;;;;;;;21.64;100.00;100464.25;5072286;28;20036;-65
2023/08/13 07:27:28;;;;;;;11.57;5.28;;;;;;;21.81;100.00;100471.66;5072164;28;20391;-65
2023/08/13 07:29:54;;;;;;;8.10;4.60;;;;;;;21.84;100.00;100474.72;5071946;28;20036;-65
2023/08/13 07:32:19;;;;;;;9.52;4.47;;;;;;;21.95;100.00;100473.00;5071934;28;20091;-64
2023/08/13 07:34:45;;;;;;;11.02;3.90;;;;;;;22.00;100.00;100473.09;5072172;28;20484;-65
2023/08/13 07:37:10;;;;;;;7.60;4.47;;;;;;;22.06;100.00;100472.13;5071978;28;20038;-65
2023/08/13 07:39:36;;;;;;;5.82;3.85;;;;;;;22.16;100.00;100471.50;5071666;28;20427;-65
2023/08/13 07:42:02;;;;;;;6.68;3.47;;;;;;;22.16;100.00;100471.50;5071969;28;20487;-65
2023/08/13 07:44:28;;;;;;;6.75;3.92;;;;;;;22.20;100.00;100473.50;5071930;28;20036;-65
2023/08/13 07:46:56;;;;;;;6.70;3.72;;;;;;;22.15;100.00;100469.88;5067062;28;20097;-65
2023/08/13 07:49:21;;;;;;;6.60;3.72;;;;;;;22.27;100.00;100478.78;5071521;28;20044;-65
2023/08/13 07:51:47;;;;;;;10.10;3.60;;;;;;;22.41;100.00;100476.56;5071460;28;20028;-65
2023/08/13 07:54:12;;;;;;;7.97;3.75;;;;;;;22.46;100.00;100480.19;5071911;28;20041;-65
2023/08/13 07:56:38;;;;;;;7.65;3.70;;;;;;;22.55;100.00;100485.19;5071462;28;20082;-65
2023/08/13 07:59:04;;;;;;;5.70;3.60;;;;;;;22.59;100.00;100479.03;5071571;28;20024;-64
2023/08/13 08:01:30;;;;;;;7.20;3.30;;;;;;;22.51;100.00;100479.47;5071722;28;20056;-64
2023/08/13 08:03:56;;;;;;;8.10;3.80;;;;;;;22.58;100.00;100480.13;5071850;28;20064;-64
2023/08/13 08:06:21;;;;;;;8.50;3.08;;;;;;;22.65;100.00;100483.47;5071675;28;20037;-64
2023/08/13 08:08:47;;;;;;;8.15;3.55;;;;;;;22.74;100.00;100487.41;5071556;28;20032;-64
2023/08/13 08:11:12;;;;;;;6.75;3.28;;;;;;;22.85;100.00;100480.25;5071654;28;20071;-65
2023/08/13 08:13:37;;;;;;;5.15;2.83;;;;;;;22.90;100.00;100483.09;5071714;28;20115;-64
2023/08/13 08:16:03;;;;;;;6.35;3.10;;;;;;;22.85;100.00;100482.97;5070951;28;20036;-64
2023/08/13 08:18:28;;;;;;;6.72;3.05;;;;;;;22.96;100.00;100492.97;5060148;28;20048;-66
2023/08/13 08:20:54;;;;;;;5.72;2.63;;;;;;;23.02;100.00;100491.16;5059928;28;20032;-64
2023/08/13 08:23:19;;;;;;;6.07;2.70;;;;;;;22.98;100.00;100482.66;5061942;28;20037;-64
2023/08/13 08:25:45;;;;;;;4.00;2.30;;;;;;;23.00;100.00;100487.84;5061324;28;20071;-66
2023/08/13 08:28:11;;;;;;;5.45;2.80;;;;;;;23.07;100.00;100474.09;5061497;28;20384;-66
2023/08/13 08:30:36;;;;;;;5.13;2.78;;;;;;;23.13;100.00;100482.06;5059846;28;20080;-65
2023/08/13 08:33:02;;;;;;;7.15;2.78;;;;;;;23.23;100.00;100470.50;5061990;28;20040;-66
2023/08/13 08:35:27;;;;;;;7.18;2.67;;;;;;;23.20;100.00;100473.72;5059923;28;20041;-66
2023/08/13 08:37:53;;;;;;;7.57;3.20;;;;;;;23.36;100.00;100464.72;5060103;28;20036;-65
2023/08/13 08:40:18;;;;;;;5.65;3.00;;;;;;;23.48;100.00;100459.16;5061224;28;20117;-65
2023/08/13 08:42:45;;;;;;;4.68;2.63;;;;;;;23.49;100.00;100464.34;5059236;28;20033;-65
2023/08/13 08:45:11;;;;;;;5.05;3.40;;;;;;;23.61;100.00;100461.53;5061993;28;20488;-65
2023/08/13 08:47:39;;;;;;;4.35;2.92;;;;;;;23.64;100.00;100452.84;5059880;28;20035;-65
2023/08/13 08:50:05;;;;;;;7.60;2.80;;;;;;;23.61;97.63;100455.22;5061116;28;20132;-65
2023/08/13 08:52:34;;;;;;;3.55;1.90;;;;;;;23.71;92.52;100461.63;5060681;28;20157;-65
2023/08/13 08:55:01;;;;;;;4.53;2.17;;;;;;;23.74;91.24;100468.47;5061262;28;20040;-67
2023/08/13 08:57:27;;;;;;;3.65;2.45;;;;;;;23.84;90.65;100465.84;5061694;28;20059;-65
2023/08/13 08:59:52;;;;;;;2.85;1.92;;;;;;;23.92;93.07;100467.28;5061042;28;20036;-65
2023/08/13 09:02:17;;;;;;;6.43;2.83;;;;;;;24.05;91.28;100464.97;5059520;28;20655;-65
2023/08/13 09:04:43;;;;;;;5.60;3.00;;;;;;;24.13;93.18;100454.72;5061572;28;20596;-66
2023/08/13 09:07:09;;;;;;;4.82;2.40;;;;;;;24.20;88.00;100452.63;5059519;28;20049;-65
2023/08/13 09:09:34;;;;;;;3.17;2.17;;;;;;;24.30;84.16;100449.97;5064949;28;20041;-65
2023/08/13 09:12:01;;;;;;;3.83;2.05;;;;;;;24.40;80.21;100449.28;5062919;28;20033;-65
2023/08/13 09:14:27;;;;;;;4.82;2.10;;;;;;;24.42;80.79;100449.84;5063503;28;20048;-65
2023/08/13 09:16:54;;;;;;;3.92;1.83;;;;;;;24.57;74.61;100448.03;5063808;28;20032;-66
2023/08/13 09:19:22;;;;;;;3.83;2.20;;;;;;;24.77;77.07;100441.09;5063945;28;20043;-66
2023/08/13 09:21:53;;;;;;;3.25;1.90;;;;;;;24.81;79.58;100450.41;5062665;28;20040;-66
2023/08/13 09:24:30;;;;;;;4.40;2.30;;;;;;;24.87;77.67;100454.78;5065482;28;20098;-66
2023/08/13 09:26:55;;;;;;;5.60;2.28;;;;;;;25.06;78.67;100442.41;5063777;28;20121;-66
2023/08/13 09:29:21;;;;;;;6.00;2.40;;;;;;;25.16;78.73;100444.34;5064694;28;20155;-66
2023/08/13 09:31:46;;;;;;;3.92;2.22;;;;;;;25.27;79.13;100445.22;5062288;28;20043;-66
2023/08/13 09:34:12;;;;;;;6.05;2.83;;;;;;;25.48;82.29;100436.03;5063615;28;20044;-66
2023/08/13 09:36:38;;;;;;;5.32;2.50;;;;;;;25.47;82.79;100439.03;5063150;28;20033;-66
2023/08/13 09:39:03;;;;;;;5.10;2.47;;;;;;;25.44;83.66;100433.03;5057036;28;20136;-66
2023/08/13 09:41:29;;;;;;;6.60;2.65;;;;;;;25.46;81.83;100431.97;5054568;28;20044;-66
2023/08/13 09:43:59;;;;;;;4.72;2.08;;;;;;;25.40;77.69;100434.66;5054487;28;20129;-66
2023/08/13 09:46:27;;;;;;;6.15;2.10;;;;;;;25.44;77.25;100424.06;5054357;28;20064;-66
2023/08/13 09:48:54;;;;;;;6.05;2.67;;;;;;;25.44;76.91;100413.16;5054114;28;20032;-66
2023/08/13 09:51:26;;;;;;;3.88;2.13;;;;;;;25.71;78.98;100416.50;5054257;28;20037;-65
2023/08/13 09:53:59;;;;;;;4.22;2.10;;;;;;;25.84;76.63;100419.81;5054350;28;20041;-65
2023/08/13 09:56:29;;;;;;;4.35;2.20;;;;;;;25.77;76.65;100422.00;5054227;28;20049;-65
2023/08/13 09:58:55;;;;;;;3.30;2.28;;;;;;;25.98;73.39;100408.09;5053912;28;20044;-66
2023/08/13 10:01:21;;;;;;;4.45;2.03;;;;;;;25.83;72.29;100424.47;5054147;28;20415;-65
2023/08/13 10:03:48;;;;;;;5.32;2.10;;;;;;;25.87;74.42;100419.28;5054127;28;20029;-65
2023/08/13 10:06:15;;;;;;;;;;;;;;;26.08;74.51;100412.75;5054365;28;20040;-65
2023/08/13 10:08:42;;;;;;;7.00;2.03;;;;;;;26.06;83.52;100414.09;5053749;28;19924;-64
2023/08/13 10:11:08;;;;;;;4.75;2.40;;;;;;;26.00;73.74;100421.47;5054526;28;20072;-64
2023/08/13 10:13:34;;;;;;;5.82;2.08;;;;;;;25.88;72.74;100424.44;5073848;28;20060;-64
2023/08/13 10:16:00;;;;;;;3.35;1.80;;;;;;;26.18;72.27;100423.69;5073881;28;20044;-64
2023/08/13 10:18:28;;;;;;;4.57;2.15;;;;;;;26.23;78.12;100426.41;5073461;28;20094;-65
2023/08/13 10:20:53;;;;;;;3.63;1.88;;;;;;;26.55;72.94;100410.88;5073629;28;20041;-65
2023/08/13 10:23:19;;;;;;;3.92;2.00;;;;;;;27.07;63.37;100417.88;5073634;28;20037;-65
2023/08/13 10:25:44;;;;;;;3.65;2.13;;;;;;;26.92;67.67;100421.44;5073710;28;20115;-65
2023/08/13 10:28:20;;;;;;;4.75;2.60;;;;;;;27.09;68.70;100419.22;5056255;28;20045;-65
2023/08/13 10:30:46;;;;;;;6.10;2.00;;;;;;;27.21;70.09;100425.22;5053462;28;20498;-65
2023/08/13 10:33:13;;;;;;;3.35;1.70;;;;;;;26.89;69.71;100424.72;5053517;28;20117;-64
2023/08/13 10:35:39;;;;;;;3.22;1.90;;;;;;;26.65;68.75;100424.50;5053458;28;20041;-64
2023/08/13 10:38:05;;;;;;;4.82;2.70;;;;;;;26.57;73.00;100427.78;5053333;28;20049;-64
2023/08/13 10:40:31;;;;;;;3.25;1.73;;;;;;;26.47;73.05;100426.72;5053219;28;20411;-65
2023/08/13 10:43:04;;;;;;;3.05;1.90;;;;;;;26.39;74.40;100426.41;5053267;28;20037;-64
2023/08/13 10:45:37;;;;;;;3.60;2.05;;;;;;;26.28;76.73;100422.88;5053361;28;20127;-65
2023/08/13 10:48:05;;;;;;;2.85;1.85;;;;;;;26.28;77.39;100425.59;5053234;28;20048;-65
2023/08/13 10:50:43;;;;;;;4.07;1.98;;;;;;;26.16;77.41;100425.06;5051708;28;20450;-65
2023/08/13 10:53:18;;;;;;;3.03;1.80;;;;;;;26.02;76.01;100413.84;5053152;28;20041;-65
2023/08/13 10:55:49;;;;;;;3.08;2.05;;;;;;;25.97;78.20;100422.03;5056791;28;20082;-65
2023/08/13 10:58:24;;;;;;;6.45;2.17;;;;;;;25.87;78.06;100424.72;5068792;28;20052;-64
2023/08/13 11:00:50;;;;;;;3.05;1.90;;;;;;;25.78;76.99;100419.00;5071648;28;20399;-64
2023/08/13 11:03:18;;;;;;;4.05;2.00;;;;;;;25.57;78.82;100431.72;5072871;28;20041;-64
2023/08/13 11:05:45;;;;;;;6.47;2.33;;;;;;;25.44;80.21;100440.41;5072475;28;20392;-64
2023/08/13 11:08:23;;;;;;;6.22;2.47;;;;;;;25.34;80.38;100441.16;5072657;28;20060;-65
2023/08/13 11:10:50;;;;;;;5.35;2.60;;;;;;;25.25;81.40;100440.06;5072630;28;20384;-65
2023/08/13 11:13:17;;;;;;;3.47;2.50;;;;;;;25.18;81.65;100431.31;5072663;28;20115;-66
2023/08/13 11:15:50;;;;;;;6.93;2.23;;;;;;;25.15;83.03;100431.81;5073319;28;20047;-65
2023/08/13 11:18:15;;;;;;;4.50;1.95;;;;;;;25.21;83.35;100432.66;5071575;28;20063;-65
2023/08/13 11:20:41;;;;;;;3.28;2.20;;;;;;;25.12;83.88;100430.44;5072394;28;20048;-65
2023/08/13 11:23:06;;;;;;;4.65;2.05;;;;;;;25.20;83.51;100422.84;5065782;28;20041;-64
2023/08/13 11:25:31;;;;;;;6.97;2.58;;;;;;;25.26;81.20;100422.59;5070693;28;20041;-65
2023/08/13 11:27:57;;;;;;;2.95;1.92;;;;;;;25.55;81.20;100419.44;5077807;28;20044;-65
2023/08/13 11:30:22;;;;;;;7.45;3.17;;;;;;;26.27;82.61;100417.66;5074183;28;20032;-65
2023/08/13 11:32:48;;;;;;;4.38;2.42;;;;;;;26.64;79.44;100420.94;5072187;28;20472;-65
2023/08/13 11:35:13;;;;;;;3.53;2.05;;;;;;;26.97;76.77;100418.69;5072234;28;20043;-65
2023/08/13 11:37:40;;;;;;;2.97;1.95;;;;;;;27.09;77.79;100418.41;5072398;28;20041;-65
2023/08/13 11:40:10;;;;;;;2.90;2.05;;;;;;;27.43;73.58;100413.91;5071836;28;20052;-65
2023/08/13 11:42:56;;;;;;;7.85;2.45;;;;;;;27.68;71.19;100414.88;5081015;28;20040;-65
2023/08/13 11:45:25;;;;;;;7.80;2.53;;;;;;;27.94;69.83;100404.59;5077419;28;20045;-66
2023/08/13 11:47:52;;;;;;;2.80;2.00;;;;;;;28.17;63.85;100403.03;5072222;28;20032;-65
2023/08/13 11:50:21;;;;;;;4.15;2.05;;;;;;;28.42;60.44;100405.59;5071957;28;20116;-65
2023/08/13 11:53:09;;;;;;;4.88;2.00;;;;;;;28.47;61.55;100405.56;5072170;28;20040;-65
2023/08/13 11:55:34;;;;;;;2.78;2.05;;;;;;;28.79;63.67;100394.00;5071991;28;20075;-65
2023/08/13 11:58:02;;;;;;;5.50;2.10;;;;;;;28.69;63.90;100396.88;5071940;28;20502;-65
2023/08/13 12:00:27;;;;;;;3.08;2.20;;;;;;;29.00;62.09;100393.78;5071906;28;20560;-64
2023/08/13 12:02:57;;;;;;;7.00;2.28;;;;;;;29.20;59.64;100385.31;5072109;28;20036;-65
2023/08/13 12:05:27;;;;;;;4.32;1.95;;;;;;;29.62;59.45;100376.28;5071837;28;20044;-64
2023/08/13 12:07:55;;;;;;;3.20;1.98;;;;;;;30.05;59.67;100380.81;5072004;28;20039;-64
2023/08/13 12:10:20;;;;;;;2.80;1.83;;;;;;;29.84;60.29;100381.16;5071621;28;20070;-64
2023/08/13 12:12:46;;;;;;;2.83;1.65;;;;;;;30.56;55.27;100375.28;5071895;28;20045;-64
2023/08/13 12:15:11;;;;;;;4.53;1.63;;;;;;;31.01;52.04;100373.59;5071847;28;20036;-65
2023/08/13 12:17:36;;;;;;;4.27;1.73;;;;;;;31.45;50.48;100365.84;5071864;28;20032;-65
2023/08/13 12:20:03;;;;;;;2.97;1.37;;;;;;;31.88;47.71;100355.19;5070246;28;20029;-65
2023/08/13 12:22:28;;;;;;;3.50;1.77;;;;;;;31.29;48.25;100354.34;5071852;28;20424;-63
2023/08/13 12:24:54;;;;;;;4.83;1.40;;;;;;;31.46;48.78;100349.00;5071903;28;20122;-65
2023/08/13 12:27:20;;;;;;;2.53;1.90;;;;;;;31.76;47.06;100353.00;5071765;28;20044;-65
2023/08/13 12:29:45;;;;;;;4.20;1.57;;;;;;;31.67;47.36;100359.53;5071592;28;20120;-64
2023/08/13 12:32:10;;;;;;;3.40;1.40;;;;;;;32.16;45.93;100349.56;5071620;28;20484;-64
2023/08/13 12:34:36;;;;;;;3.40;1.60;;;;;;;32.01;47.69;100346.06;5071735;28;20044;-64
2023/08/13 12:37:02;;;;;;;4.80;1.60;;;;;;;32.30;47.66;100339.28;5071601;28;20051;-64
2023/08/13 12:39:28;;;;;;;1.40;1.20;;;;;;;31.81;47.97;100335.56;5071397;28;20443;-65
2023/08/13 12:41:53;;;;;;;2.83;1.40;;;;;;;32.29;48.61;100348.69;5071667;28;20093;-63
2023/08/13 12:44:19;;;;;;;3.03;1.80;;;;;;;31.85;46.06;100334.63;5075466;28;20036;-63
2023/08/13 12:46:44;;;;;;;1.70;1.10;;;;;;;32.13;44.65;100338.03;5074439;28;20076;-64
2023/08/13 12:49:09;;;;;;;4.47;1.23;;;;;;;32.35;45.16;100334.47;5075265;28;20032;-64
2023/08/13 12:51:35;;;;;;;3.63;1.20;;;;;;;33.08;43.94;100332.16;5075213;28;20484;-63
2023/08/13 12:54:00;;;;;;;1.60;1.20;;;;;;;32.93;43.30;100327.09;5075536;28;20098;-63
2023/08/13 12:56:26;;;;;;;2.33;1.30;;;;;;;31.99;43.95;100322.72;5075442;28;20403;-63
2023/08/13 12:58:51;;;;;;;1.70;1.30;;;;;;;32.57;44.19;100322.56;5075196;28;20408;-64
2023/08/13 13:01:16;;;;;;;2.47;0.97;;;;;;;32.91;43.35;100323.84;5075327;28;20112;-65
2023/08/13 13:03:42;;;;;;;3.97;1.40;;;;;;;32.42;43.56;100334.03;5075311;28;20040;-64
2023/08/13 13:06:07;;;;;;;2.87;1.47;;;;;;;32.40;45.02;100331.56;5075209;28;20040;-64
2023/08/13 13:08:32;;;;;;;2.37;1.43;;;;;;;32.72;45.61;100328.78;5074981;28;20071;-64
2023/08/13 13:10:58;;;;;;;1.20;1.10;;;;;;;32.74;45.66;100323.78;5075031;28;20426;-67
2023/08/13 13:13:23;;;;;;;2.47;1.90;;;;;;;32.85;44.60;100323.13;5071809;28;20044;-63
2023/08/13 13:15:49;;;;;;;2.03;1.37;;;;;;;33.00;44.66;100319.16;5069370;28;20128;-62
2023/08/13 13:18:14;;;;;;;3.90;1.30;;;;;;;32.96;43.96;100318.16;5074773;28;20094;-64
2023/08/13 13:20:39;;;;;;;2.03;1.30;;;;;;;32.47;43.23;100317.31;5074929;28;20510;-63
2023/08/13 13:23:05;;;;;;;2.00;1.50;;;;;;;32.66;44.33;100319.84;5074925;28;20124;-62
2023/08/13 13:25:30;;;;;;;2.70;1.40;;;;;;;32.17;46.24;100321.69;5074797;28;20445;-62
2023/08/13 13:28:00;;;;;;;1.87;1.40;;;;;;;31.96;45.64;100321.41;5074848;28;20048;-62
2023/08/13 13:30:28;;;;;;;2.40;1.55;;;;;;;31.86;45.54;100316.16;5068412;28;20596;-63
2023/08/13 13:32:55;;;;;;;1.95;1.48;;;;;;;30.93;48.26;100311.09;5054700;28;20103;-61
2023/08/13 13:35:20;;;;;;;2.78;1.50;;;;;;;30.71;47.98;100316.47;5054835;28;20044;-63
2023/08/13 13:37:45;;;;;;;2.10;1.13;;;;;;;30.22;49.65;100320.69;5054653;28;20037;-64
2023/08/13 13:40:11;;;;;;;1.73;1.33;;;;;;;29.96;50.95;100315.63;5054399;28;20499;-63
2023/08/13 13:42:37;;;;;;;2.47;1.40;;;;;;;29.76;51.55;100306.91;5054745;28;20159;-63
2023/08/13 13:45:03;;;;;;;2.35;1.27;;;;;;;29.29;53.75;100304.03;5054534;28;20411;-63
2023/08/13 13:47:29;;;;;;;2.77;1.23;;;;;;;29.29;56.29;100303.22;5054382;28;20033;-63
2023/08/13 13:49:54;;;;;;;1.83;1.23;;;;;;;29.35;53.99;100291.88;5054196;28;20040;-63
2023/08/13 13:52:20;;;;;;;1.57;1.20;;;;;;;29.20;55.88;100295.63;5054325;28;20537;-63
2023/08/13 13:54:45;;;;;;;3.75;1.55;;;;;;;29.32;56.12;100286.97;5053923;28;20037;-63
2023/08/13 13:57:11;;;;;;;3.15;1.50;;;;;;;28.97;55.20;100284.72;5054320;28;20037;-63
2023/08/13 13:59:36;;;;;;;1.92;1.58;;;;;;;28.99;57.14;100286.06;5052747;28;20496;-63
2023/08/13 14:02:01;;;;;;;3.40;1.48;;;;;;;28.79;61.84;100292.59;5054164;28;20040;-63
2023/08/13 14:04:27;;;;;;;2.25;1.23;;;;;;;28.86;57.78;100279.34;5054184;28;20040;-64
2023/08/13 14:06:52;;;;;;;2.65;1.60;;;;;;;28.94;54.19;100277.91;5054047;28;20044;-63
2023/08/13 14:09:18;;;;;;;2.20;1.70;;;;;;;28.84;53.45;100270.59;5053890;28;20123;-64
2023/08/13 14:11:43;;;;;;;2.28;1.42;;;;;;;28.69;55.74;100265.31;5054049;28;20044;-63
2023/08/13 14:14:08;;;;;;;2.50;1.25;;;;;;;28.58;51.94;100261.88;5054108;28;20055;-63
2023/08/13 14:16:34;;;;;;;1.92;1.10;;;;;;;28.35;54.69;100273.66;5053785;28;20502;-63
2023/08/13 14:18:59;;;;;;;2.58;1.40;;;;;;;28.21;52.21;100267.19;5053684;28;20036;-63
2023/08/13 14:21:25;;;;;;;3.30;1.10;;;;;;;28.31;53.15;100267.13;5053793;28;20491;-62
2023/08/13 14:23:50;;;;;;;2.30;1.10;;;;;;;28.26;53.61;100261.69;5053930;28;20041;-63
2023/08/13 14:26:17;;;;;;;2.55;1.35;;;;;;;28.24;52.93;100259.22;5053609;28;20086;-63
2023/08/13 14:28:42;;;;;;;1.73;1.20;;;;;;;28.29;52.40;100261.91;5053409;28;20486;-63
2023/08/13 14:31:07;;;;;;;4.70;2.30;;;;;;;28.37;51.33;100250.34;5053549;28;20321;-64
2023/08/13 14:33:33;;;;;;;4.15;2.15;;;;;;;28.26;52.22;100264.41;5053619;28;20045;-63
2023/08/13 14:35:58;;;;;;;2.72;1.35;;;;;;;28.27;51.99;100266.03;5053436;28;20041;-63
2023/08/13 14:38:24;;;;;;;13.63;9.13;;;;;;;28.12;52.79;100264.28;5053291;28;20040;-63
2023/08/13 14:40:49;;;;;;;16.00;11.80;;;;;;;27.93;53.42;100255.16;5053449;28;20036;-64
2023/08/13 14:43:14;;;;;;;2.03;1.73;;;;;;;27.80;51.22;100260.19;5053330;28;20162;-63
2023/08/13 14:45:40;;;;;;;6.22;4.32;;;;;;;27.78;53.43;100262.41;5053406;28;20060;-63
2023/08/13 14:48:05;;;;;;;4.28;2.65;;;;;;;27.82;55.37;100265.38;5053210;28;20478;-62
2023/08/13 14:50:31;;;;;;;5.85;3.13;;;;;;;27.89;55.37;100265.06;5053086;28;20029;-63
2023/08/13 14:52:56;;;;;;;6.63;3.78;;;;;;;27.93;56.65;100263.38;5053111;28;20051;-63
2023/08/13 14:55:22;;;;;;;4.30;1.55;;;;;;;27.74;60.49;100272.28;5053162;28;20120;-63
2023/08/13 14:57:47;;;;;;;2.28;1.45;;;;;;;27.79;56.59;100264.03;5053050;28;20496;-63
2023/08/13 15:00:14;;;;;;;4.22;2.38;;;;;;;27.87;55.08;100261.78;5052781;28;20041;-63
2023/08/13 15:02:39;;;;;;;7.88;4.72;;;;;;;27.85;58.08;100257.44;5053063;28;20108;-62
2023/08/13 15:05:07;;;;;;;3.58;2.28;;;;;;;27.85;58.68;100257.44;5052162;28;20120;-63
2023/08/13 15:07:32;;;;;;;5.28;3.80;;;;;;;27.90;58.67;100262.03;5052717;28;20033;-57
2023/08/13 15:09:58;;;;;;;3.30;2.20;;;;;;;27.69;60.06;100266.03;5065738;28;20404;-50
2023/08/13 15:12:23;;;;;;;4.03;1.95;;;;;;;27.56;57.55;100262.81;5072600;28;20036;-56
2023/08/13 15:14:48;;;;;;;4.60;1.65;;;;;;;27.58;59.91;100257.91;5072526;28;20032;-53
2023/08/13 15:17:14;;;;;;;3.88;2.10;;;;;;;27.41;59.44;100260.22;5072432;28;20090;-54
2023/08/13 15:19:39;;;;;;;3.47;1.80;;;;;;;27.35;59.01;100260.53;5064114;28;20041;-60
2023/08/13 15:22:04;;;;;;;5.55;2.25;;;;;;;27.30;59.03;100266.84;5072465;28;20029;-57
2023/08/13 15:24:30;;;;;;;3.78;1.98;;;;;;;27.23;60.89;100255.41;5072331;28;20553;-61
2023/08/13 15:26:55;;;;;;;4.00;1.60;;;;;;;27.22;63.06;100260.06;5072232;28;20039;-58
2023/08/13 15:29:20;;;;;;;2.40;1.40;;;;;;;27.13;65.59;100250.84;5072121;28;20083;-60
2023/08/13 15:31:46;;;;;;;4.60;2.60;;;;;;;27.07;64.18;100253.88;5072292;28;20032;-61
2023/08/13 15:34:13;;;;;;;3.05;1.63;;;;;;;27.06;65.74;100242.13;5072395;28;20127;-59
2023/08/13 15:36:38;;;;;;;2.45;1.45;;;;;;;27.02;66.56;100238.28;5072036;28;20082;-59
2023/08/13 15:39:04;;;;;;;2.35;1.20;;;;;;;27.05;65.47;100241.28;5072009;28;20040;-57